createdAt,value
2017-10-10T00:01:35.348Z,10.80
2017-10-10T00:06:38.321Z,10.80
2017-10-10T00:11:42.487Z,10.80
2017-10-10T00:16:47.482Z,10.80
2017-10-10T00:21:53.494Z,10.80
2017-10-10T00:27:00.441Z,10.80
2017-10-10T00:32:04.680Z,10.80
2017-10-10T00:37:07.574Z,10.80
2017-10-10T00:42:11.761Z,10.80
2017-10-10T00:47:15.937Z,10.80
2017-10-10T00:52:19.276Z,10.80
2017-10-10T01:02:30.151Z,10.80
2017-10-10T01:07:34.420Z,10.80
2017-10-10T01:12:38.773Z,10.80
2017-10-10T01:17:42.161Z,10.80
2017-10-10T01:22:46.207Z,10.80
2017-10-10T01:27:49.810Z,10.80
2017-10-10T01:32:54.041Z,10.80
2017-10-10T01:37:57.349Z,10.80
2017-10-10T01:48:08.429Z,10.80
2017-10-10T01:53:14.505Z,10.80
2017-10-10T01:58:17.917Z,10.80
2017-10-10T02:03:24.880Z,10.80
2017-10-10T02:08:28.224Z,10.80
2017-10-10T02:13:32.516Z,10.80
2017-10-10T02:18:35.893Z,10.80
2017-10-10T02:23:39.365Z,10.80
2017-10-10T02:28:45.321Z,10.80
2017-10-10T02:33:48.728Z,10.80
2017-10-10T02:38:53.865Z,10.80
2017-10-10T02:44:00.660Z,10.70
2017-10-10T02:49:03.994Z,10.70
2017-10-10T02:54:07.414Z,10.80
2017-10-10T02:59:11.054Z,10.80
2017-10-10T03:04:14.018Z,10.80
2017-10-10T03:09:19.035Z,10.80
2017-10-10T03:14:22.302Z,10.70
2017-10-10T03:19:25.737Z,10.80
2017-10-10T03:29:38.864Z,10.80
2017-10-10T03:34:41.744Z,10.80
2017-10-10T03:39:44.408Z,10.80
2017-10-10T03:49:54.610Z,10.80
2017-10-10T03:54:57.994Z,10.80
2017-10-10T04:00:03.976Z,10.80
2017-10-10T04:05:08.220Z,10.80
2017-10-10T04:10:12.416Z,10.80
2017-10-10T04:15:16.516Z,10.80
2017-10-10T04:20:19.952Z,10.80
2017-10-10T04:25:23.273Z,10.70
2017-10-10T04:30:26.580Z,10.70
2017-10-10T04:40:38.286Z,10.70
2017-10-10T04:45:41.626Z,10.70
2017-10-10T04:50:45.877Z,10.70
2017-10-10T04:55:50.123Z,10.70
2017-10-10T05:00:54.632Z,10.70
2017-10-10T05:05:58.950Z,10.70
2017-10-10T05:11:03.332Z,10.70
2017-10-10T05:16:07.563Z,10.70
2017-10-10T05:21:13.608Z,10.70
2017-10-10T05:26:18.738Z,10.70
2017-10-10T05:31:22.775Z,10.60
2017-10-10T05:36:28.909Z,10.70
2017-10-10T05:41:35.396Z,10.60
2017-10-10T05:46:38.406Z,10.70
2017-10-10T05:51:44.492Z,10.60
2017-10-10T05:56:49.284Z,10.60
2017-10-10T06:01:53.491Z,10.60
2017-10-10T06:06:56.783Z,10.60
2017-10-10T06:12:00.148Z,10.60
2017-10-10T06:17:02.854Z,10.60
2017-10-10T06:22:07.236Z,10.60
2017-10-10T06:27:10.689Z,10.60
2017-10-10T06:32:14.241Z,10.60
2017-10-10T06:37:17.665Z,10.60
2017-10-10T06:42:21.156Z,10.60
2017-10-10T06:47:24.274Z,10.60
2017-10-10T06:52:27.223Z,10.60
2017-10-10T06:57:30.210Z,10.60
2017-10-10T07:02:33.690Z,10.70
2017-10-10T07:07:37.896Z,10.70
2017-10-10T07:12:42.146Z,10.70
2017-10-10T07:17:46.286Z,10.70
2017-10-10T07:22:49.041Z,10.70
2017-10-10T07:27:55.007Z,10.70
2017-10-10T07:32:58.448Z,10.80
2017-10-10T07:38:02.154Z,10.80
2017-10-10T07:43:05.644Z,10.80
2017-10-10T07:48:09.073Z,10.80
2017-10-10T07:53:12.009Z,10.80
2017-10-10T07:58:14.707Z,10.90
2017-10-10T08:03:18.113Z,11.00
2017-10-10T08:08:21.551Z,11.00
2017-10-10T08:13:27.523Z,11.00
2017-10-10T08:18:31.693Z,11.20
2017-10-10T08:23:35.031Z,11.20
2017-10-10T08:28:39.298Z,11.30
2017-10-10T08:33:42.671Z,11.40
2017-10-10T08:38:45.381Z,11.50
2017-10-10T08:43:48.834Z,11.50
2017-10-10T08:48:53.275Z,11.60
2017-10-10T08:53:56.624Z,11.70
2017-10-10T08:58:59.640Z,11.80
2017-10-10T09:04:04.695Z,12.00
2017-10-10T09:09:10.869Z,12.00
2017-10-10T09:14:16.060Z,12.10
2017-10-10T09:19:20.360Z,12.10
2017-10-10T09:24:23.707Z,12.30
2017-10-10T09:29:26.629Z,12.30
2017-10-10T09:34:30.103Z,12.40
2017-10-10T09:39:33.434Z,12.50
2017-10-10T09:44:36.268Z,12.70
2017-10-10T09:49:40.775Z,12.90
2017-10-10T09:54:45.252Z,13.00
2017-10-10T09:59:48.732Z,13.20
2017-10-10T10:04:52.212Z,13.30
2017-10-10T10:09:58.337Z,13.50
2017-10-10T10:15:01.347Z,13.60
2017-10-10T10:20:04.775Z,13.80
2017-10-10T10:25:07.679Z,14.00
2017-10-10T10:30:10.605Z,14.10
2017-10-10T10:35:14.872Z,14.30
2017-10-10T10:45:27.780Z,14.50
2017-10-10T10:50:31.279Z,14.80
2017-10-10T10:55:34.747Z,14.70
2017-10-10T11:00:37.772Z,15.00
2017-10-10T11:05:41.292Z,15.10
2017-10-10T11:10:46.509Z,15.20
2017-10-10T11:15:50.810Z,15.20
2017-10-10T11:20:55.846Z,15.40
2017-10-10T11:26:00.156Z,15.30
2017-10-10T11:31:06.166Z,15.50
2017-10-10T11:36:09.691Z,15.60
2017-10-10T11:46:20.018Z,15.80
2017-10-10T11:51:24.281Z,15.90
2017-10-10T11:56:27.705Z,16.00
2017-10-10T12:01:32.204Z,16.10
2017-10-10T12:06:35.691Z,16.20
2017-10-10T12:11:39.271Z,16.20
2017-10-10T12:16:42.687Z,16.20
2017-10-10T12:26:52.386Z,16.20
2017-10-10T12:31:55.772Z,16.20
2017-10-10T12:36:58.471Z,16.20
2017-10-10T12:42:01.888Z,16.20
2017-10-10T12:47:06.103Z,16.10
2017-10-10T12:52:09.082Z,16.10
2017-10-10T12:57:12.045Z,16.10
2017-10-10T13:02:14.874Z,16.00
2017-10-10T13:07:19.102Z,15.90
2017-10-10T13:12:23.261Z,15.90
2017-10-10T13:17:27.503Z,15.80
2017-10-10T13:22:30.894Z,15.70
2017-10-10T13:27:33.571Z,15.60
2017-10-10T13:32:36.884Z,15.50
2017-10-10T13:37:40.187Z,15.40
2017-10-10T13:42:43.838Z,15.30
2017-10-10T13:47:47.235Z,15.20
2017-10-10T13:52:50.191Z,15.00
2017-10-10T13:57:54.394Z,14.90
2017-10-10T14:02:57.772Z,14.80
2017-10-10T14:08:00.590Z,14.70
2017-10-10T14:13:03.312Z,14.60
2017-10-10T14:18:06.627Z,14.60
2017-10-10T14:23:12.576Z,14.50
2017-10-10T14:28:15.568Z,14.40
2017-10-10T14:33:19.055Z,14.40
2017-10-10T14:38:22.777Z,14.30
2017-10-10T14:43:27.010Z,14.20
2017-10-10T14:48:30.423Z,14.20
2017-10-10T14:53:34.610Z,14.20
2017-10-10T14:58:38.782Z,14.10
2017-10-10T15:03:42.820Z,14.00
2017-10-10T15:08:46.074Z,14.10
2017-10-10T15:13:49.058Z,14.00
2017-10-10T15:18:53.879Z,14.00
2017-10-10T15:23:57.339Z,14.00
2017-10-10T15:29:00.242Z,14.00
2017-10-10T15:34:03.559Z,14.00
2017-10-10T15:39:06.977Z,14.00
2017-10-10T15:44:10.652Z,13.90
2017-10-10T15:49:14.120Z,13.90
2017-10-10T15:54:17.193Z,13.90
2017-10-10T15:59:20.636Z,13.90
2017-10-10T16:04:26.740Z,13.90
2017-10-10T16:09:29.727Z,13.90
2017-10-10T16:14:33.120Z,13.80
2017-10-10T16:19:37.693Z,13.80
2017-10-10T16:24:43.694Z,13.80
2017-10-10T16:29:47.987Z,13.80
2017-10-10T16:34:54.808Z,13.70
2017-10-10T16:40:00.769Z,13.70
2017-10-10T16:45:04.094Z,13.70
2017-10-10T16:50:10.191Z,13.70
2017-10-10T16:55:12.891Z,13.60
2017-10-10T17:00:17.427Z,13.70
2017-10-10T17:05:21.896Z,13.60
2017-10-10T17:10:26.298Z,13.60
2017-10-10T17:15:30.549Z,13.60
2017-10-10T17:20:33.630Z,13.50
2017-10-10T17:25:37.213Z,13.50
2017-10-10T17:30:40.849Z,13.50
2017-10-10T17:40:51.231Z,13.50
2017-10-10T17:51:06.153Z,13.40
2017-10-10T17:56:10.425Z,13.40
2017-10-10T18:01:13.380Z,13.40
2017-10-10T18:06:16.384Z,13.40
2017-10-10T18:11:23.429Z,13.30
2017-10-10T18:16:26.817Z,13.30
2017-10-10T18:21:30.386Z,13.30
2017-10-10T18:26:34.697Z,13.30
2017-10-10T18:31:38.247Z,13.30
2017-10-10T18:36:41.047Z,13.30
2017-10-10T18:41:47.339Z,13.20
2017-10-10T18:46:53.372Z,13.20
2017-10-10T18:51:56.831Z,13.20
2017-10-10T18:57:00.319Z,13.20
2017-10-10T19:02:06.502Z,13.20
2017-10-10T19:07:10.208Z,13.20
2017-10-10T19:12:13.801Z,13.20
2017-10-10T19:17:17.272Z,13.20
2017-10-10T19:22:21.727Z,13.10
2017-10-10T19:27:26.247Z,13.20
2017-10-10T19:32:29.816Z,13.20
2017-10-10T19:37:33.281Z,13.10
2017-10-10T19:42:36.348Z,13.10
2017-10-10T19:47:40.729Z,13.10
2017-10-10T19:52:44.384Z,13.10
2017-10-10T19:57:47.284Z,13.10
2017-10-10T20:02:50.697Z,13.10
2017-10-10T20:07:54.886Z,13.10
2017-10-10T20:12:58.647Z,13.10
2017-10-10T20:18:01.940Z,13.00
2017-10-10T20:23:06.220Z,13.00
2017-10-10T20:28:09.095Z,13.10
2017-10-10T20:33:13.772Z,13.00
2017-10-10T20:38:16.881Z,13.00
2017-10-10T20:43:20.316Z,13.00
2017-10-10T20:48:24.863Z,13.00
2017-10-10T20:53:27.946Z,13.00
2017-10-10T20:58:31.974Z,13.00
2017-10-10T21:03:35.362Z,13.00
2017-10-10T21:08:38.812Z,13.00
2017-10-10T21:13:42.984Z,13.00
2017-10-10T21:18:46.513Z,13.00
2017-10-10T21:23:49.841Z,13.00
2017-10-10T21:28:54.093Z,13.00
2017-10-10T21:33:59.338Z,12.90
2017-10-10T21:39:02.361Z,12.90
2017-10-10T21:44:05.707Z,12.90
2017-10-10T21:49:08.558Z,12.90
2017-10-10T21:54:11.901Z,12.90
2017-10-10T21:59:16.202Z,12.90
2017-10-10T22:04:19.548Z,12.80
2017-10-10T22:09:22.778Z,12.80
2017-10-10T22:14:30.097Z,12.80
2017-10-10T22:19:34.409Z,12.80
2017-10-10T22:24:38.826Z,12.80
2017-10-10T22:29:41.997Z,12.80
2017-10-10T22:34:45.775Z,12.80
2017-10-10T22:39:48.853Z,12.80
2017-10-10T22:44:51.925Z,12.80
2017-10-10T22:49:54.992Z,12.80
2017-10-10T22:54:58.422Z,12.80
2017-10-10T23:00:01.886Z,12.80
2017-10-10T23:05:04.780Z,12.80
2017-10-10T23:10:08.207Z,12.80
2017-10-10T23:15:11.755Z,12.80
2017-10-10T23:20:18.001Z,12.80
2017-10-10T23:25:21.447Z,12.80
2017-10-10T23:30:24.489Z,12.80
2017-10-10T23:35:29.210Z,12.80
2017-10-10T23:40:33.013Z,12.70
2017-10-10T23:45:36.465Z,12.70
2017-10-10T23:50:40.757Z,12.80
